createdAt,value
2017-01-29T00:00:38.395Z,0
2017-01-29T00:01:52.747Z,0
2017-01-29T00:03:07.089Z,0
2017-01-29T00:04:21.476Z,0
2017-01-29T00:05:35.839Z,0
2017-01-29T00:06:50.228Z,0
2017-01-29T00:08:03.964Z,0
2017-01-29T00:09:18.296Z,0
2017-01-29T00:10:32.651Z,0
2017-01-29T00:11:47.032Z,0
2017-01-29T00:13:01.402Z,0
2017-01-29T00:14:14.487Z,0
2017-01-29T00:15:28.204Z,0
2017-01-29T00:16:42.578Z,0
2017-01-29T00:17:56.943Z,0
2017-01-29T00:19:10.672Z,0
2017-01-29T00:20:25.033Z,0
2017-01-29T00:21:39.420Z,0
2017-01-29T00:22:53.796Z,0
2017-01-29T00:24:08.241Z,0
2017-01-29T00:25:22.622Z,0
2017-01-29T00:26:36.985Z,0
2017-01-29T00:27:51.389Z,0
2017-01-29T00:29:05.798Z,0
2017-01-29T00:30:20.212Z,0
2017-01-29T00:31:33.972Z,0
2017-01-29T00:32:47.741Z,0
2017-01-29T00:34:02.137Z,0
2017-01-29T00:35:15.204Z,0
2017-01-29T00:36:29.579Z,0
2017-01-29T00:37:43.302Z,0
2017-01-29T00:38:57.656Z,0
2017-01-29T00:40:11.401Z,0
2017-01-29T00:41:25.765Z,0
2017-01-29T00:42:40.102Z,0
2017-01-29T00:43:54.522Z,0
2017-01-29T00:45:08.888Z,0
2017-01-29T00:46:23.258Z,0
2017-01-29T00:47:37.156Z,0
2017-01-29T00:48:50.874Z,0
2017-01-29T00:50:05.236Z,0
2017-01-29T00:51:18.310Z,0
2017-01-29T00:52:32.685Z,0
2017-01-29T00:53:47.119Z,0
2017-01-29T00:55:01.532Z,0
2017-01-29T00:56:15.250Z,0
2017-01-29T00:57:29.681Z,0
2017-01-29T00:58:43.404Z,0
2017-01-29T00:59:57.134Z,0
2017-01-29T01:01:11.488Z,0
2017-01-29T01:02:25.233Z,0
2017-01-29T01:03:39.588Z,0
2017-01-29T01:04:53.952Z,0
2017-01-29T01:06:08.277Z,0
2017-01-29T01:07:21.984Z,0
2017-01-29T01:08:36.382Z,0
2017-01-29T01:09:50.772Z,0
2017-01-29T01:11:05.139Z,0
2017-01-29T01:12:18.241Z,0
2017-01-29T01:13:32.628Z,0
2017-01-29T01:14:47.038Z,0
2017-01-29T01:16:01.438Z,0
2017-01-29T01:17:15.135Z,0
2017-01-29T01:18:29.498Z,0
2017-01-29T01:19:43.437Z,0
2017-01-29T01:20:57.795Z,0
2017-01-29T01:22:12.176Z,0
2017-01-29T01:23:26.584Z,0
2017-01-29T01:24:40.971Z,0
2017-01-29T01:25:55.308Z,0
2017-01-29T01:27:09.674Z,0
2017-01-29T01:28:24.074Z,0
2017-01-29T01:29:38.460Z,0
2017-01-29T01:30:52.906Z,0
2017-01-29T01:32:07.269Z,0
2017-01-29T01:33:21.651Z,0
2017-01-29T01:34:36.000Z,0
2017-01-29T01:35:50.383Z,0
2017-01-29T01:37:04.758Z,0
2017-01-29T01:38:18.461Z,0
2017-01-29T01:39:33.025Z,0
2017-01-29T01:40:47.367Z,0
2017-01-29T01:42:01.741Z,0
2017-01-29T01:43:15.470Z,0
2017-01-29T01:44:29.824Z,0
2017-01-29T01:45:42.887Z,0
2017-01-29T01:46:57.219Z,0
2017-01-29T01:48:11.628Z,0
2017-01-29T01:49:26.005Z,0
2017-01-29T01:50:40.412Z,0
2017-01-29T01:51:54.783Z,0
2017-01-29T01:53:09.157Z,0
2017-01-29T01:54:22.892Z,0
2017-01-29T01:55:37.236Z,0
2017-01-29T01:56:50.957Z,0
2017-01-29T01:58:04.706Z,0
2017-01-29T01:59:18.473Z,0
2017-01-29T02:00:32.847Z,0
2017-01-29T02:01:47.209Z,0
2017-01-29T02:03:01.583Z,0
2017-01-29T02:04:15.994Z,0
2017-01-29T02:05:30.409Z,0
2017-01-29T02:06:44.154Z,0
2017-01-29T02:07:58.494Z,0
2017-01-29T02:09:12.906Z,0
2017-01-29T02:10:26.646Z,0
2017-01-29T02:11:41.021Z,0
2017-01-29T02:12:55.401Z,0
2017-01-29T02:14:09.755Z,0
2017-01-29T02:15:24.143Z,0
2017-01-29T02:16:38.718Z,0
2017-01-29T02:17:53.123Z,0
2017-01-29T02:19:06.851Z,0
2017-01-29T02:20:21.229Z,0
2017-01-29T02:21:35.573Z,0
2017-01-29T02:22:49.953Z,0
2017-01-29T02:24:04.400Z,0
2017-01-29T02:25:18.750Z,0
2017-01-29T02:26:33.121Z,0
2017-01-29T02:27:47.538Z,0
2017-01-29T02:29:01.291Z,0
2017-01-29T02:30:14.994Z,0
2017-01-29T02:31:29.340Z,0
2017-01-29T02:32:43.728Z,0
2017-01-29T02:33:58.109Z,0
2017-01-29T02:35:12.507Z,0
2017-01-29T02:36:26.818Z,0
2017-01-29T02:37:41.218Z,0
2017-01-29T02:38:55.587Z,0
2017-01-29T02:40:09.317Z,0
2017-01-29T02:41:23.051Z,0
2017-01-29T02:42:37.596Z,0
2017-01-29T02:43:51.326Z,0
2017-01-29T02:45:05.074Z,0
2017-01-29T02:46:19.480Z,0
2017-01-29T02:47:33.829Z,0
2017-01-29T02:48:47.568Z,0
2017-01-29T02:50:01.938Z,0
2017-01-29T02:51:16.306Z,0
2017-01-29T02:52:30.671Z,0
2017-01-29T02:53:45.037Z,0
2017-01-29T02:54:58.748Z,0
2017-01-29T02:56:13.123Z,0
2017-01-29T02:57:27.508Z,0
2017-01-29T02:58:41.859Z,0
2017-01-29T02:59:56.257Z,0
2017-01-29T03:01:10.048Z,0
2017-01-29T03:02:24.464Z,0
2017-01-29T03:03:38.833Z,0
2017-01-29T03:04:53.174Z,0
2017-01-29T03:06:06.260Z,0
2017-01-29T03:07:19.999Z,0
2017-01-29T03:08:34.356Z,0
2017-01-29T03:09:48.729Z,0
2017-01-29T03:11:03.124Z,0
2017-01-29T03:12:17.548Z,0
2017-01-29T03:13:31.892Z,0
2017-01-29T03:14:46.247Z,0
2017-01-29T03:16:00.649Z,0
2017-01-29T03:17:15.020Z,0
2017-01-29T03:18:29.374Z,0
2017-01-29T03:19:43.766Z,0
2017-01-29T03:20:58.126Z,0
2017-01-29T03:22:11.819Z,0
2017-01-29T03:23:25.587Z,0
2017-01-29T03:24:39.931Z,0
2017-01-29T03:25:54.333Z,0
2017-01-29T03:27:07.417Z,0
2017-01-29T03:28:21.409Z,0
2017-01-29T03:29:37.500Z,0
2017-01-29T03:30:52.097Z,0
2017-01-29T03:32:06.484Z,0
2017-01-29T03:33:20.871Z,0
2017-01-29T03:34:35.243Z,0
2017-01-29T03:35:49.613Z,0
2017-01-29T03:37:03.979Z,0
2017-01-29T03:38:17.701Z,0
2017-01-29T03:39:32.110Z,0
2017-01-29T03:40:46.466Z,0
2017-01-29T03:42:00.786Z,0
2017-01-29T03:43:15.158Z,0
2017-01-29T03:44:29.544Z,0
2017-01-29T03:45:43.946Z,0
2017-01-29T03:46:58.287Z,0
2017-01-29T03:48:11.337Z,0
2017-01-29T03:49:25.676Z,0
2017-01-29T03:50:40.024Z,0
2017-01-29T03:51:54.441Z,0
2017-01-29T03:53:08.819Z,0
2017-01-29T03:54:23.166Z,0
2017-01-29T03:55:37.524Z,0
2017-01-29T03:56:51.901Z,0
2017-01-29T03:58:05.656Z,0
2017-01-29T03:59:20.075Z,0
2017-01-29T04:00:34.456Z,0
2017-01-29T04:01:48.809Z,0
2017-01-29T04:03:03.176Z,0
2017-01-29T04:04:16.888Z,0
2017-01-29T04:05:31.257Z,0
2017-01-29T04:06:45.604Z,0
2017-01-29T04:07:59.962Z,0
2017-01-29T04:09:14.328Z,0
2017-01-29T04:10:28.675Z,0
2017-01-29T04:11:43.046Z,0
2017-01-29T04:12:57.417Z,0
2017-01-29T04:14:09.854Z,0
2017-01-29T04:15:24.210Z,0
2017-01-29T04:16:38.607Z,0
2017-01-29T04:17:53.017Z,0
2017-01-29T04:19:06.749Z,0
2017-01-29T04:20:21.103Z,0
2017-01-29T04:21:34.802Z,0
2017-01-29T04:22:49.188Z,0
2017-01-29T04:24:03.545Z,0
2017-01-29T04:25:17.281Z,0
2017-01-29T04:26:31.001Z,0
2017-01-29T04:27:45.395Z,0
2017-01-29T04:28:59.786Z,0
2017-01-29T04:30:14.197Z,0
2017-01-29T04:31:28.634Z,0
2017-01-29T04:32:43.002Z,0
2017-01-29T04:33:57.386Z,0
2017-01-29T04:35:11.726Z,0
2017-01-29T04:36:26.094Z,0
2017-01-29T04:37:40.486Z,0
2017-01-29T04:38:54.217Z,0
2017-01-29T04:40:08.573Z,0
2017-01-29T04:41:22.960Z,0
2017-01-29T04:42:37.322Z,0
2017-01-29T04:43:51.679Z,0
2017-01-29T04:45:05.992Z,0
2017-01-29T04:46:20.343Z,0
2017-01-29T04:47:34.710Z,0
2017-01-29T04:48:49.118Z,0
2017-01-29T04:50:03.499Z,0
2017-01-29T04:51:17.268Z,0
2017-01-29T04:52:31.631Z,0
2017-01-29T04:53:45.986Z,0
2017-01-29T04:55:00.366Z,0
2017-01-29T04:56:14.112Z,0
2017-01-29T04:57:28.548Z,0
2017-01-29T04:58:42.892Z,0
2017-01-29T04:59:57.260Z,0
2017-01-29T05:01:11.004Z,0
2017-01-29T05:02:25.335Z,0
2017-01-29T05:03:39.752Z,0
2017-01-29T05:04:54.093Z,0
2017-01-29T05:06:07.818Z,0
2017-01-29T05:07:21.534Z,0
2017-01-29T05:08:35.924Z,0
2017-01-29T05:09:50.262Z,0
2017-01-29T05:11:04.635Z,0
2017-01-29T05:12:18.371Z,0
2017-01-29T05:13:32.720Z,0
2017-01-29T05:14:47.083Z,0
2017-01-29T05:16:01.467Z,0
2017-01-29T05:17:15.184Z,0
2017-01-29T05:18:29.589Z,0
2017-01-29T05:19:43.959Z,0
2017-01-29T05:20:58.325Z,0
2017-01-29T05:22:12.056Z,0
2017-01-29T05:23:25.805Z,0
2017-01-29T05:24:40.180Z,0
2017-01-29T05:25:54.592Z,0
2017-01-29T05:27:08.978Z,0
2017-01-29T05:28:23.364Z,0
2017-01-29T05:29:37.742Z,0
2017-01-29T05:30:52.131Z,0
2017-01-29T05:32:06.577Z,0
2017-01-29T05:33:20.345Z,0
2017-01-29T05:34:34.724Z,0
2017-01-29T05:35:49.071Z,0
2017-01-29T05:37:03.485Z,0
2017-01-29T05:38:17.226Z,0
2017-01-29T05:39:31.571Z,0
2017-01-29T05:40:45.939Z,0
2017-01-29T05:41:59.643Z,0
2017-01-29T05:43:14.026Z,0
2017-01-29T05:44:28.392Z,0
2017-01-29T05:45:42.760Z,0
2017-01-29T05:46:57.105Z,0
2017-01-29T05:48:11.480Z,0
2017-01-29T05:49:25.866Z,0
2017-01-29T05:50:40.253Z,0
2017-01-29T05:51:54.637Z,0
2017-01-29T05:53:08.350Z,0
2017-01-29T05:54:22.747Z,0
2017-01-29T05:55:37.093Z,0
2017-01-29T05:56:51.457Z,0
2017-01-29T05:58:05.805Z,0
2017-01-29T05:59:19.516Z,0
2017-01-29T06:00:33.862Z,0
2017-01-29T06:01:48.251Z,0
2017-01-29T06:03:02.616Z,0
2017-01-29T06:04:16.355Z,0
2017-01-29T06:05:30.744Z,0
2017-01-29T06:06:45.111Z,0
2017-01-29T06:07:59.469Z,0
2017-01-29T06:09:13.858Z,0
2017-01-29T06:10:28.244Z,0
2017-01-29T06:11:41.953Z,0
2017-01-29T06:12:56.334Z,0
2017-01-29T06:14:10.699Z,0
2017-01-29T06:15:25.084Z,0
2017-01-29T06:16:39.454Z,0
2017-01-29T06:17:53.844Z,0
2017-01-29T06:19:07.600Z,0
2017-01-29T06:20:21.993Z,0
2017-01-29T06:21:36.369Z,0
2017-01-29T06:22:50.758Z,0
2017-01-29T06:24:05.169Z,0
2017-01-29T06:25:18.234Z,0
2017-01-29T06:26:31.968Z,0
2017-01-29T06:27:46.381Z,0
2017-01-29T06:29:00.120Z,0
2017-01-29T06:30:14.493Z,0
2017-01-29T06:31:28.890Z,0
2017-01-29T06:32:43.222Z,0
2017-01-29T06:33:57.566Z,0
2017-01-29T06:35:11.938Z,0
2017-01-29T06:36:25.675Z,0
2017-01-29T06:37:40.018Z,0
2017-01-29T06:38:54.345Z,0
2017-01-29T06:40:08.754Z,0
2017-01-29T06:41:22.545Z,0
2017-01-29T06:42:36.272Z,0
2017-01-29T06:43:50.011Z,0
2017-01-29T06:45:04.393Z,0
2017-01-29T06:46:18.113Z,0
2017-01-29T06:47:32.530Z,0
2017-01-29T06:48:46.911Z,0
2017-01-29T06:50:01.296Z,0
2017-01-29T06:51:15.672Z,0
2017-01-29T06:52:30.041Z,0
2017-01-29T06:53:43.790Z,0
2017-01-29T06:54:58.194Z,0
2017-01-29T06:56:11.961Z,0
2017-01-29T06:57:25.669Z,0
2017-01-29T06:58:39.396Z,0
2017-01-29T06:59:53.754Z,0
2017-01-29T07:01:08.116Z,0
2017-01-29T07:02:22.512Z,0
2017-01-29T07:03:36.882Z,0
2017-01-29T07:04:51.230Z,0
2017-01-29T07:06:05.583Z,0
2017-01-29T07:07:18.636Z,0
2017-01-29T07:08:32.991Z,0
2017-01-29T07:09:47.381Z,0
2017-01-29T07:11:01.792Z,0
2017-01-29T07:12:16.201Z,0
2017-01-29T07:13:30.586Z,0
2017-01-29T07:14:44.906Z,0
2017-01-29T07:15:59.285Z,0
2017-01-29T07:17:13.657Z,0
2017-01-29T07:18:27.405Z,0
2017-01-29T07:19:41.724Z,0
2017-01-29T07:20:56.114Z,0
2017-01-29T07:22:10.505Z,0
2017-01-29T07:23:24.902Z,0
2017-01-29T07:24:39.282Z,0
2017-01-29T07:25:53.639Z,0
2017-01-29T07:27:08.009Z,0
2017-01-29T07:28:22.369Z,0
2017-01-29T07:29:36.699Z,0
2017-01-29T07:30:50.384Z,0
2017-01-29T07:32:04.751Z,0
2017-01-29T07:33:18.462Z,0
2017-01-29T07:34:32.801Z,0
2017-01-29T07:35:47.164Z,0
2017-01-29T07:37:01.551Z,0
2017-01-29T07:38:14.659Z,0
2017-01-29T07:39:29.037Z,0
2017-01-29T07:40:43.426Z,0
2017-01-29T07:41:57.801Z,0
2017-01-29T07:43:12.184Z,0
2017-01-29T07:44:25.920Z,0
2017-01-29T07:45:40.310Z,0
2017-01-29T07:46:54.658Z,0
2017-01-29T07:48:07.721Z,0
2017-01-29T07:49:21.436Z,0
2017-01-29T07:50:35.794Z,0
2017-01-29T07:51:50.132Z,0
2017-01-29T07:53:04.484Z,0
2017-01-29T07:54:17.541Z,0
2017-01-29T07:55:31.933Z,0
2017-01-29T07:56:46.334Z,0
2017-01-29T07:58:00.703Z,0
2017-01-29T07:59:15.062Z,0
2017-01-29T08:00:29.440Z,0
2017-01-29T08:01:43.833Z,0
2017-01-29T08:02:58.197Z,0
2017-01-29T08:04:12.529Z,0
2017-01-29T08:05:26.882Z,0
2017-01-29T08:06:41.252Z,0
2017-01-29T08:07:55.627Z,0
2017-01-29T08:09:09.971Z,0
2017-01-29T08:10:23.062Z,0
2017-01-29T08:11:37.463Z,0
2017-01-29T08:12:51.828Z,0
2017-01-29T08:14:06.219Z,0
2017-01-29T08:15:20.593Z,4
2017-01-29T08:16:34.335Z,0
2017-01-29T08:17:48.719Z,4
2017-01-29T08:19:03.070Z,4
2017-01-29T08:20:16.803Z,4
2017-01-29T08:21:31.182Z,4
2017-01-29T08:22:45.561Z,4
2017-01-29T08:23:59.943Z,8
2017-01-29T08:25:14.328Z,8
2017-01-29T08:26:28.725Z,12
2017-01-29T08:27:43.074Z,20
2017-01-29T08:28:57.443Z,24
2017-01-29T08:30:11.809Z,36
2017-01-29T08:31:26.186Z,56
2017-01-29T08:32:40.546Z,76
2017-01-29T08:33:54.279Z,100
2017-01-29T08:35:08.651Z,124
2017-01-29T08:36:21.697Z,152
2017-01-29T08:37:35.441Z,192
2017-01-29T08:38:49.783Z,220
2017-01-29T08:40:02.841Z,240
2017-01-29T08:41:17.229Z,268
2017-01-29T08:42:31.563Z,300
2017-01-29T08:43:45.953Z,340
2017-01-29T08:45:00.305Z,392
2017-01-29T08:46:14.075Z,452
2017-01-29T08:47:28.469Z,528
2017-01-29T08:48:42.885Z,636
2017-01-29T08:49:57.277Z,792
2017-01-29T08:51:11.689Z,968
2017-01-29T08:52:26.093Z,1140
2017-01-29T08:53:39.851Z,1308
2017-01-29T08:54:54.223Z,1476
2017-01-29T08:56:08.611Z,1664
2017-01-29T08:57:22.365Z,1864
2017-01-29T08:58:36.724Z,2068
2017-01-29T08:59:51.099Z,2284
2017-01-29T09:01:05.461Z,2536
2017-01-29T09:02:19.163Z,2852
2017-01-29T09:03:33.512Z,3140
2017-01-29T09:04:47.883Z,3592
2017-01-29T09:06:02.245Z,3904
2017-01-29T09:07:16.648Z,4216
2017-01-29T09:08:29.710Z,4464
2017-01-29T09:09:44.102Z,4552
2017-01-29T09:10:57.824Z,4836
2017-01-29T09:12:11.538Z,4904
2017-01-29T09:13:26.142Z,5240
2017-01-29T09:14:40.516Z,6156
2017-01-29T09:15:54.925Z,6224
2017-01-29T09:17:09.281Z,5756
2017-01-29T09:18:23.626Z,5720
2017-01-29T09:19:37.340Z,5912
2017-01-29T09:20:51.691Z,6212
2017-01-29T09:22:06.053Z,6672
2017-01-29T09:23:19.785Z,7324
2017-01-29T09:24:33.528Z,8184
2017-01-29T09:25:47.847Z,9216
2017-01-29T09:27:02.218Z,10380
2017-01-29T09:28:16.587Z,11788
2017-01-29T09:29:30.941Z,14024
2017-01-29T09:30:45.290Z,16352
2017-01-29T09:31:59.691Z,18208
2017-01-29T09:33:13.429Z,18816
2017-01-29T09:34:27.800Z,18784
2017-01-29T09:35:42.156Z,18656
2017-01-29T09:36:56.549Z,20608
2017-01-29T09:38:10.256Z,21216
2017-01-29T09:39:24.654Z,22592
2017-01-29T09:40:39.013Z,23424
2017-01-29T09:41:53.412Z,23648
2017-01-29T09:43:07.788Z,23392
2017-01-29T09:44:21.526Z,18144
2017-01-29T09:45:35.895Z,15040
2017-01-29T09:46:50.279Z,14536
2017-01-29T09:48:03.382Z,14356
2017-01-29T09:49:17.111Z,14692
2017-01-29T09:50:31.511Z,15208
2017-01-29T09:51:45.877Z,18176
2017-01-29T09:53:00.250Z,19776
2017-01-29T09:54:14.648Z,21376
2017-01-29T09:55:29.021Z,22144
2017-01-29T09:56:43.402Z,22528
2017-01-29T09:57:57.847Z,22688
2017-01-29T09:59:12.216Z,21856
2017-01-29T10:00:26.621Z,20160
2017-01-29T10:01:40.981Z,19776
2017-01-29T10:02:55.405Z,15752
2017-01-29T10:04:09.175Z,15132
2017-01-29T10:05:23.528Z,15216
2017-01-29T10:06:37.869Z,17216
2017-01-29T10:07:52.230Z,15968
2017-01-29T10:09:06.617Z,23488
2017-01-29T10:10:20.995Z,23872
2017-01-29T10:11:35.389Z,21920
2017-01-29T10:12:49.137Z,22048
2017-01-29T10:14:03.507Z,20768
2017-01-29T10:15:16.579Z,18944
2017-01-29T10:16:30.937Z,18656
2017-01-29T10:17:45.304Z,18240
2017-01-29T10:18:59.658Z,17632
2017-01-29T10:20:12.753Z,17020
2017-01-29T10:21:27.120Z,16844
2017-01-29T10:22:41.486Z,16584
2017-01-29T10:23:55.846Z,16508
2017-01-29T10:25:10.247Z,16820
2017-01-29T10:26:24.593Z,17504
2017-01-29T10:27:38.367Z,17664
2017-01-29T10:28:52.727Z,17264
2017-01-29T10:30:07.092Z,17044
2017-01-29T10:31:21.446Z,17208
2017-01-29T10:32:35.830Z,17760
2017-01-29T10:33:50.166Z,18592
2017-01-29T10:35:03.917Z,19616
2017-01-29T10:36:17.629Z,20768
2017-01-29T10:37:32.006Z,23456
2017-01-29T10:38:46.357Z,28448
2017-01-29T10:40:00.726Z,25088
2017-01-29T10:41:15.072Z,24640
2017-01-29T10:42:28.770Z,24544
2017-01-29T10:43:42.477Z,32672
2017-01-29T10:44:56.856Z,48608
2017-01-29T10:46:09.953Z,67360
2017-01-29T10:47:24.302Z,54528
2017-01-29T10:48:38.679Z,70656
2017-01-29T10:49:53.065Z,53216
2017-01-29T10:51:07.481Z,63936
2017-01-29T10:52:21.228Z,32576
2017-01-29T10:53:34.963Z,65632
2017-01-29T10:54:49.333Z,64992
2017-01-29T10:56:03.708Z,47072
2017-01-29T10:57:18.335Z,68256
2017-01-29T10:58:32.687Z,71488
2017-01-29T10:59:47.077Z,71520
2017-01-29T11:01:00.812Z,75328
2017-01-29T11:02:15.179Z,73280
2017-01-29T11:03:29.553Z,78240
2017-01-29T11:04:43.298Z,76096
2017-01-29T11:05:57.662Z,83968
2017-01-29T11:07:12.005Z,82176
2017-01-29T11:08:26.404Z,80864
2017-01-29T11:09:40.778Z,85600
2017-01-29T11:10:55.115Z,85536
2017-01-29T11:12:08.844Z,88288
2017-01-29T11:13:23.228Z,88032
2017-01-29T11:14:37.603Z,93728
2017-01-29T11:15:51.989Z,95072
2017-01-29T11:17:06.394Z,93248
2017-01-29T11:18:20.791Z,94176
2017-01-29T11:19:35.149Z,100224
2017-01-29T11:20:49.565Z,93536
2017-01-29T11:22:03.938Z,68704
2017-01-29T11:23:17.651Z,92928
2017-01-29T11:24:32.042Z,96448
2017-01-29T11:25:45.769Z,65440
2017-01-29T11:26:59.533Z,65056
2017-01-29T11:28:13.345Z,48448
2017-01-29T11:29:27.783Z,43200
2017-01-29T11:30:42.139Z,40992
2017-01-29T11:31:56.508Z,38208
2017-01-29T11:33:10.908Z,37888
2017-01-29T11:34:25.301Z,35968
2017-01-29T11:35:39.683Z,36032
2017-01-29T11:36:54.053Z,36032
2017-01-29T11:38:08.448Z,35008
2017-01-29T11:39:22.832Z,43360
2017-01-29T11:40:37.175Z,58656
2017-01-29T11:41:51.550Z,38528
2017-01-29T11:43:05.294Z,32000
2017-01-29T11:44:19.723Z,28736
2017-01-29T11:45:34.093Z,26528
2017-01-29T11:46:48.490Z,26432
2017-01-29T11:48:02.879Z,27296
2017-01-29T11:49:16.592Z,29888
2017-01-29T11:50:30.937Z,31904
2017-01-29T11:51:44.701Z,33888
2017-01-29T11:52:59.092Z,38560
2017-01-29T11:54:12.803Z,40800
2017-01-29T11:55:26.512Z,43904
2017-01-29T11:56:41.254Z,60256
2017-01-29T11:57:55.605Z,62432
2017-01-29T11:59:09.984Z,88960
2017-01-29T12:00:24.327Z,91488
2017-01-29T12:01:38.741Z,98944
2017-01-29T12:02:53.104Z,81120
2017-01-29T12:04:07.486Z,71776
2017-01-29T12:05:21.188Z,63744
2017-01-29T12:06:34.928Z,47040
2017-01-29T12:07:49.282Z,40832
2017-01-29T12:09:03.660Z,33280
2017-01-29T12:10:17.402Z,32960
2017-01-29T12:11:31.837Z,32320
2017-01-29T12:12:45.585Z,32096
2017-01-29T12:13:59.963Z,34816
2017-01-29T12:15:14.322Z,41312
2017-01-29T12:16:28.746Z,50080
2017-01-29T12:17:42.528Z,50720
2017-01-29T12:18:56.911Z,56768
2017-01-29T12:20:10.628Z,59488
2017-01-29T12:21:24.988Z,53184
2017-01-29T12:22:38.703Z,61408
2017-01-29T12:23:53.082Z,69184
2017-01-29T12:25:07.462Z,79968
2017-01-29T12:26:21.197Z,75584
2017-01-29T12:27:35.537Z,75712
2017-01-29T12:28:49.291Z,66912
2017-01-29T12:30:03.646Z,72288
2017-01-29T12:31:18.042Z,87968
2017-01-29T12:32:32.433Z,39680
2017-01-29T12:34:10.733Z,61952
2017-01-29T12:35:25.109Z,87616
2017-01-29T12:36:39.553Z,19456
2017-01-29T12:37:53.908Z,95552
2017-01-29T12:39:08.265Z,107648
2017-01-29T12:40:22.631Z,109248
2017-01-29T12:41:37.072Z,104544
2017-01-29T12:42:49.547Z,109824
2017-01-29T12:44:03.936Z,113088
2017-01-29T12:45:18.288Z,109408
2017-01-29T12:46:32.688Z,108960
2017-01-29T12:47:47.073Z,114752
2017-01-29T12:49:01.432Z,103520
2017-01-29T12:50:15.171Z,98720
2017-01-29T12:51:29.548Z,105056
2017-01-29T12:52:43.956Z,106048
2017-01-29T12:53:57.685Z,100672
2017-01-29T12:55:11.428Z,103008
2017-01-29T12:56:25.800Z,111744
2017-01-29T12:57:40.207Z,112320
2017-01-29T12:58:54.632Z,113024
2017-01-29T13:00:09.090Z,114368
2017-01-29T13:01:22.889Z,113056
2017-01-29T13:02:37.241Z,106432
2017-01-29T13:03:51.620Z,106816
2017-01-29T13:05:05.406Z,109600
2017-01-29T13:06:19.944Z,114016
2017-01-29T13:07:34.314Z,115328
2017-01-29T13:08:48.687Z,111584
2017-01-29T13:10:02.476Z,108416
2017-01-29T13:11:16.204Z,106688
2017-01-29T13:12:30.569Z,107552
2017-01-29T13:13:44.967Z,106560
2017-01-29T13:14:59.357Z,107680
2017-01-29T13:16:13.762Z,108288
2017-01-29T13:17:28.119Z,117696
2017-01-29T13:18:42.561Z,123328
2017-01-29T13:19:56.989Z,123104
2017-01-29T13:21:11.417Z,119584
2017-01-29T13:22:25.779Z,120384
2017-01-29T13:23:39.498Z,115008
2017-01-29T13:24:53.865Z,121120
2017-01-29T13:26:08.216Z,116768
2017-01-29T13:27:21.973Z,109824
2017-01-29T13:28:36.370Z,107136
2017-01-29T13:29:49.450Z,102720
2017-01-29T13:31:03.857Z,109728
2017-01-29T13:32:17.591Z,119808
2017-01-29T13:33:32.021Z,113440
2017-01-29T13:34:46.380Z,127392
2017-01-29T13:36:00.771Z,131296
2017-01-29T13:37:15.125Z,131136
2017-01-29T13:38:28.858Z,131840
2017-01-29T13:39:43.223Z,130112
2017-01-29T13:40:57.596Z,131264
2017-01-29T13:42:12.007Z,120480
2017-01-29T13:43:26.347Z,122240
2017-01-29T13:44:40.719Z,132064
2017-01-29T13:45:55.107Z,131936
2017-01-29T13:47:09.467Z,126656
2017-01-29T13:48:23.895Z,116800
2017-01-29T13:49:38.295Z,111136
2017-01-29T13:50:51.400Z,111520
2017-01-29T13:52:05.796Z,114656
2017-01-29T13:53:20.158Z,118368
2017-01-29T13:54:34.551Z,119360
2017-01-29T13:55:48.933Z,123968
2017-01-29T13:57:02.673Z,129632
2017-01-29T13:58:17.049Z,139392
2017-01-29T13:59:31.429Z,140320
2017-01-29T14:00:45.159Z,134752
2017-01-29T14:01:59.534Z,104576
2017-01-29T14:03:13.245Z,41536
2017-01-29T14:04:27.634Z,44160
2017-01-29T14:05:42.054Z,50944
2017-01-29T14:06:56.459Z,121728
2017-01-29T14:08:10.204Z,125504
2017-01-29T14:09:24.620Z,121216
2017-01-29T14:10:38.984Z,111232
2017-01-29T14:11:52.750Z,112608
2017-01-29T14:13:07.154Z,124256
2017-01-29T14:14:21.532Z,143936
2017-01-29T14:15:36.117Z,145216
2017-01-29T14:16:50.506Z,148192
2017-01-29T14:18:04.899Z,147584
2017-01-29T14:19:18.013Z,152864
2017-01-29T14:20:32.395Z,150432
2017-01-29T14:21:46.792Z,138304
2017-01-29T14:23:01.209Z,114944
2017-01-29T14:24:14.963Z,129184
2017-01-29T14:25:29.364Z,149984
2017-01-29T14:26:43.733Z,138752
2017-01-29T14:27:58.126Z,137952
2017-01-29T14:29:12.519Z,144256
2017-01-29T14:30:26.281Z,149568
2017-01-29T14:31:40.686Z,151744
2017-01-29T14:32:54.424Z,144608
2017-01-29T14:34:08.208Z,149024
2017-01-29T14:35:22.586Z,151072
2017-01-29T14:36:36.301Z,149792
2017-01-29T14:37:50.031Z,143584
2017-01-29T14:39:04.419Z,143328
2017-01-29T14:40:18.164Z,148224
2017-01-29T15:57:28.183Z,147776
2017-01-29T15:58:42.599Z,147200
2017-01-29T15:59:57.026Z,144672
2017-01-29T16:01:11.415Z,142656
2017-01-29T16:07:51.167Z,32192
2017-01-29T16:09:05.589Z,37312
2017-01-29T16:10:19.364Z,33536
2017-01-29T16:11:33.754Z,32640
2017-01-29T16:12:48.142Z,31552
2017-01-29T16:14:02.559Z,31264
2017-01-29T16:15:16.979Z,53536
2017-01-29T16:16:31.393Z,35072
2017-01-29T16:17:45.747Z,87200
2017-01-29T16:18:59.451Z,137824
2017-01-29T16:20:12.538Z,142688
2017-01-29T16:21:26.947Z,140288
2017-01-29T16:22:41.369Z,138016
2017-01-29T16:23:55.105Z,138528
2017-01-29T16:25:09.473Z,142496
2017-01-29T16:26:23.875Z,137408
2017-01-29T16:27:38.260Z,137568
2017-01-29T16:28:52.650Z,139424
2017-01-29T16:30:07.024Z,139296
2017-01-29T16:31:20.759Z,141696
2017-01-29T16:32:35.151Z,139328
2017-01-29T16:33:49.598Z,139584
2017-01-29T16:35:03.997Z,135552
2017-01-29T16:36:18.405Z,134880
2017-01-29T16:37:32.820Z,92576
2017-01-29T16:38:47.194Z,39648
2017-01-29T16:40:00.895Z,118112
2017-01-29T16:41:15.260Z,126176
2017-01-29T16:42:29.623Z,136992
2017-01-29T16:43:43.997Z,140448
2017-01-29T16:44:57.737Z,111712
2017-01-29T16:46:11.537Z,134816
2017-01-29T16:47:25.970Z,128960
2017-01-29T16:48:40.373Z,131328
2017-01-29T16:49:54.813Z,132384
2017-01-29T16:51:09.226Z,133152
2017-01-29T16:52:22.986Z,132192
2017-01-29T16:53:37.373Z,118016
2017-01-29T16:54:51.789Z,66528
2017-01-29T16:56:05.570Z,40704
2017-01-29T16:57:19.323Z,44576
2017-01-29T16:58:33.718Z,60704
2017-01-29T16:59:48.110Z,123360
2017-01-29T17:01:02.539Z,117696
2017-01-29T17:02:16.965Z,129888
2017-01-29T17:03:31.337Z,124640
2017-01-29T17:04:45.761Z,64832
2017-01-29T17:06:00.136Z,95488
2017-01-29T17:07:14.500Z,109248
2017-01-29T17:08:28.891Z,111392
2017-01-29T17:09:43.279Z,115776
2017-01-29T17:10:57.060Z,119648
2017-01-29T17:12:10.819Z,127168
2017-01-29T17:13:25.247Z,123040
2017-01-29T17:14:39.652Z,124960
2017-01-29T17:15:54.045Z,124384
2017-01-29T17:17:08.441Z,123616
2017-01-29T17:18:22.198Z,119168
2017-01-29T17:19:36.604Z,120224
2017-01-29T17:20:50.996Z,123296
2017-01-29T17:22:05.400Z,122496
2017-01-29T17:23:18.467Z,122720
2017-01-29T17:24:32.838Z,118336
2017-01-29T17:25:47.232Z,110464
2017-01-29T17:27:00.988Z,99008
2017-01-29T17:28:14.750Z,107552
2017-01-29T17:29:28.498Z,112896
2017-01-29T17:30:42.890Z,115232
2017-01-29T17:31:57.255Z,111840
2017-01-29T17:33:11.676Z,110144
2017-01-29T17:34:25.397Z,111040
2017-01-29T17:35:39.788Z,115872
2017-01-29T17:36:53.536Z,113344
2017-01-29T17:38:07.947Z,112672
2017-01-29T17:39:21.671Z,112416
2017-01-29T17:40:36.104Z,115104
2017-01-29T17:41:49.855Z,108704
2017-01-29T17:43:04.222Z,99552
2017-01-29T17:44:17.329Z,102528
2017-01-29T17:45:31.757Z,105248
2017-01-29T17:46:46.168Z,105376
2017-01-29T17:48:00.566Z,108192
2017-01-29T17:49:14.993Z,104480
2017-01-29T17:50:29.392Z,103776
2017-01-29T17:51:43.731Z,110816
2017-01-29T17:52:58.128Z,107648
2017-01-29T17:54:12.514Z,40416
2017-01-29T17:55:27.166Z,69376
2017-01-29T17:56:41.578Z,29344
2017-01-29T17:57:55.982Z,28096
2017-01-29T17:59:09.733Z,30336
2017-01-29T18:00:22.816Z,34848
2017-01-29T18:01:37.218Z,94592
2017-01-29T18:02:51.581Z,87072
2017-01-29T18:04:05.980Z,31104
2017-01-29T18:05:19.748Z,43296
2017-01-29T18:06:34.165Z,86080
2017-01-29T18:07:48.534Z,87904
2017-01-29T18:09:02.938Z,45472
2017-01-29T18:10:16.682Z,32288
2017-01-29T18:11:31.063Z,89024
2017-01-29T18:12:45.440Z,82368
2017-01-29T18:13:59.788Z,85696
2017-01-29T18:15:14.173Z,61760
2017-01-29T18:16:28.516Z,26976
2017-01-29T18:17:42.939Z,53312
2017-01-29T18:18:56.718Z,58880